createdAt,value
2023-01-10T00:00:42.295Z,5.05
2023-01-10T00:03:11.507Z,4.57
2023-01-10T00:05:39.698Z,4.20
2023-01-10T00:08:07.783Z,5.05
2023-01-10T00:10:35.757Z,4.72
2023-01-10T00:13:21.232Z,3.80
2023-01-10T00:15:48.254Z,5.28
2023-01-10T00:18:15.181Z,4.22
2023-01-10T00:20:44.612Z,5.03
2023-01-10T00:23:11.875Z,4.78
2023-01-10T00:25:39.259Z,4.88
2023-01-10T00:28:21.818Z,4.93
2023-01-10T00:31:20.501Z,5.03
2023-01-10T00:33:47.417Z,5.30
2023-01-10T00:36:14.223Z,4.97
2023-01-10T00:38:41.127Z,4.75
2023-01-10T00:41:27.956Z,4.90
2023-01-10T00:43:57.554Z,4.55
2023-01-10T00:46:24.628Z,5.65
2023-01-10T00:48:51.717Z,4.95
2023-01-10T00:51:18.954Z,4.95
2023-01-10T00:53:45.844Z,5.90
2023-01-10T00:56:12.829Z,5.38
2023-01-10T00:58:39.790Z,5.93
2023-01-10T01:01:06.723Z,5.55
2023-01-10T01:03:34.418Z,5.40
2023-01-10T01:06:06.245Z,5.47
2023-01-10T01:08:33.466Z,5.43
2023-01-10T01:11:00.432Z,6.57
2023-01-10T01:13:27.649Z,6.53
2023-01-10T01:15:58.883Z,6.05
2023-01-10T01:18:25.883Z,6.22
2023-01-10T01:20:57.662Z,5.90
2023-01-10T01:23:24.897Z,5.60
2023-01-10T01:25:53.638Z,5.30
2023-01-10T01:28:21.979Z,5.28
2023-01-10T01:30:49.469Z,5.30
2023-01-10T01:33:19.019Z,5.78
2023-01-10T01:35:47.711Z,5.97
2023-01-10T01:38:15.715Z,5.20
2023-01-10T01:40:42.972Z,4.65
2023-01-10T01:43:25.960Z,5.70
2023-01-10T01:45:53.562Z,5.00
2023-01-10T01:48:39.830Z,5.38
2023-01-10T01:51:13.748Z,5.10
2023-01-10T01:53:44.444Z,4.47
2023-01-10T01:56:17.909Z,4.85
2023-01-10T01:58:49.926Z,5.70
2023-01-10T02:01:17.759Z,5.88
2023-01-10T02:03:53.602Z,5.45
2023-01-10T02:06:23.769Z,6.20
2023-01-10T02:08:56.720Z,6.60
2023-01-10T02:11:23.684Z,5.78
2023-01-10T02:13:52.136Z,5.72
2023-01-10T02:16:19.283Z,4.93
2023-01-10T02:18:46.261Z,4.93
2023-01-10T02:21:18.668Z,5.75
2023-01-10T02:24:09.711Z,6.05
2023-01-10T02:27:00.797Z,5.13
2023-01-10T02:30:20.415Z,5.30
2023-01-10T02:33:04.552Z,4.82
2023-01-10T02:35:53.184Z,4.80
2023-01-10T02:38:29.129Z,4.90
2023-01-10T02:41:15.614Z,5.28
2023-01-10T02:43:55.141Z,5.22
2023-01-10T02:46:27.673Z,5.78
2023-01-10T02:48:55.558Z,5.03
2023-01-10T02:51:27.962Z,4.63
2023-01-10T02:54:03.790Z,5.05
2023-01-10T02:57:02.227Z,5.65
2023-01-10T02:59:56.812Z,5.18
2023-01-10T03:02:54.518Z,5.45
2023-01-10T03:05:44.959Z,5.43
2023-01-10T03:08:43.053Z,4.72
2023-01-10T03:11:12.137Z,5.38
2023-01-10T03:13:59.446Z,5.10
2023-01-10T03:16:29.368Z,5.30
2023-01-10T03:19:03.969Z,5.07
2023-01-10T03:21:32.664Z,5.23
2023-01-10T03:24:09.137Z,4.97
2023-01-10T03:26:48.802Z,6.93
2023-01-10T03:29:25.740Z,6.78
2023-01-10T03:31:57.434Z,6.25
2023-01-10T03:34:26.297Z,5.15
2023-01-10T03:36:59.700Z,4.68
2023-01-10T03:39:51.487Z,5.90
2023-01-10T03:42:51.625Z,5.00
2023-01-10T03:45:26.666Z,7.43
2023-01-10T03:47:56.170Z,4.82
2023-01-10T03:50:26.197Z,6.00
2023-01-10T03:52:53.351Z,5.82
2023-01-10T03:55:23.144Z,6.70
2023-01-10T03:57:50.177Z,5.22
2023-01-10T04:00:18.109Z,7.25
2023-01-10T04:02:45.236Z,4.65
2023-01-10T04:05:12.825Z,5.32
2023-01-10T04:07:40.099Z,5.43
2023-01-10T04:10:08.193Z,4.60
2023-01-10T04:12:35.296Z,4.93
2023-01-10T04:15:02.826Z,5.47
2023-01-10T04:17:29.881Z,4.00
2023-01-10T04:19:56.773Z,5.72
2023-01-10T04:22:23.656Z,5.60
2023-01-10T04:24:52.038Z,5.82
2023-01-10T04:27:19.383Z,5.20
2023-01-10T04:29:46.776Z,5.13
2023-01-10T04:32:13.731Z,4.68
2023-01-10T04:34:40.655Z,5.20
2023-01-10T04:37:07.914Z,5.07
2023-01-10T04:39:34.815Z,5.43
2023-01-10T04:42:01.739Z,4.90
2023-01-10T04:44:28.573Z,5.35
2023-01-10T04:46:55.524Z,4.43
2023-01-10T04:49:22.487Z,4.70
2023-01-10T04:51:49.442Z,4.75
2023-01-10T04:54:20.385Z,6.40
2023-01-10T04:56:47.884Z,5.28
2023-01-10T04:59:15.057Z,4.85
2023-01-10T05:01:42.142Z,4.95
2023-01-10T05:04:09.702Z,4.63
2023-01-10T05:06:37.345Z,5.00
2023-01-10T05:09:04.172Z,5.55
2023-01-10T05:11:31.040Z,4.72
2023-01-10T05:13:57.895Z,4.80
2023-01-10T05:16:25.517Z,4.90
2023-01-10T05:18:52.607Z,5.28
2023-01-10T05:21:19.521Z,4.70
2023-01-10T05:23:46.558Z,5.10
2023-01-10T05:26:16.129Z,5.55
2023-01-10T05:28:43.576Z,4.93
2023-01-10T05:31:13.085Z,4.88
2023-01-10T05:33:43.495Z,5.15
2023-01-10T05:36:10.523Z,5.78
2023-01-10T05:38:37.398Z,5.97
2023-01-10T05:41:04.681Z,4.90
2023-01-10T05:43:31.559Z,5.57
2023-01-10T05:45:58.772Z,5.63
2023-01-10T05:48:25.697Z,5.28
2023-01-10T05:50:53.055Z,5.43
2023-01-10T05:53:20.587Z,5.28
2023-01-10T05:56:01.490Z,5.15
2023-01-10T05:58:29.657Z,5.07
2023-01-10T06:00:57.843Z,5.00
2023-01-10T06:03:26.602Z,6.18
2023-01-10T06:05:54.912Z,5.60
2023-01-10T06:08:23.115Z,5.70
2023-01-10T06:10:50.162Z,5.72
2023-01-10T06:13:17.077Z,6.25
2023-01-10T06:15:44.324Z,4.80
2023-01-10T06:18:12.509Z,6.15
2023-01-10T06:20:40.552Z,4.80
2023-01-10T06:23:07.713Z,5.10
2023-01-10T06:25:37.608Z,4.32
2023-01-10T06:28:04.572Z,5.82
2023-01-10T06:30:31.424Z,4.90
2023-01-10T06:33:06.937Z,5.70
2023-01-10T06:38:00.685Z,7.00
2023-01-10T06:40:28.239Z,5.32
2023-01-10T06:42:55.344Z,4.53
2023-01-10T06:45:22.300Z,4.85
2023-01-10T06:47:49.139Z,4.85
2023-01-10T06:50:16.204Z,5.05
2023-01-10T06:52:43.107Z,4.88
2023-01-10T06:55:10.587Z,4.60
2023-01-10T06:57:38.381Z,4.63
2023-01-10T07:00:08.548Z,5.68
2023-01-10T07:02:36.727Z,5.13
2023-01-10T07:05:03.689Z,5.63
2023-01-10T07:07:30.855Z,5.03
2023-01-10T07:09:59.846Z,5.75
2023-01-10T07:12:26.769Z,3.92
2023-01-10T07:14:53.629Z,5.80
2023-01-10T07:17:21.152Z,4.15
2023-01-10T07:19:47.980Z,4.57
2023-01-10T07:22:14.909Z,5.10
2023-01-10T07:24:41.915Z,4.32
2023-01-10T07:27:08.970Z,4.68
2023-01-10T07:29:35.826Z,5.18
2023-01-10T07:32:02.733Z,4.13
2023-01-10T07:34:29.541Z,5.45
2023-01-10T07:36:56.454Z,4.25
2023-01-10T07:39:23.333Z,4.60
2023-01-10T07:41:50.824Z,4.65
2023-01-10T07:44:17.626Z,4.53
2023-01-10T07:46:44.626Z,4.60
2023-01-10T07:49:11.562Z,5.22
2023-01-10T07:51:38.438Z,4.60
2023-01-10T07:54:05.364Z,5.05
2023-01-10T07:56:32.749Z,4.78
2023-01-10T07:59:01.266Z,4.70
2023-01-10T08:01:29.665Z,4.53
2023-01-10T08:03:58.725Z,5.13
2023-01-10T08:06:25.628Z,4.43
2023-01-10T08:08:52.467Z,5.00
2023-01-10T08:11:19.419Z,5.03
2023-01-10T08:13:46.284Z,4.63
2023-01-10T08:16:15.373Z,4.22
2023-01-10T08:18:43.253Z,4.53
2023-01-10T08:21:10.399Z,5.50
2023-01-10T08:23:37.310Z,5.90
2023-01-10T08:26:05.758Z,6.13
2023-01-10T08:28:32.979Z,5.85
2023-01-10T08:31:05.822Z,5.28
2023-01-10T08:33:32.900Z,5.75
2023-01-10T08:35:59.747Z,6.18
2023-01-10T08:38:26.819Z,5.07
2023-01-10T08:40:57.223Z,5.45
2023-01-10T08:43:24.462Z,5.15
2023-01-10T08:45:51.320Z,4.63
2023-01-10T08:48:18.251Z,4.90
2023-01-10T08:50:45.093Z,5.75
2023-01-10T08:53:13.760Z,5.82
2023-01-10T08:55:40.698Z,6.30
2023-01-10T08:58:07.647Z,4.60
2023-01-10T09:00:34.530Z,5.22
2023-01-10T09:03:01.678Z,5.78
2023-01-10T09:05:28.727Z,6.20
2023-01-10T09:08:00.968Z,5.35
2023-01-10T09:10:31.064Z,6.13
2023-01-10T09:13:01.506Z,5.38
2023-01-10T09:15:36.918Z,6.07
2023-01-10T09:20:33.083Z,5.47
2023-01-10T09:23:09.337Z,6.60
2023-01-10T09:25:36.574Z,6.40
2023-01-10T09:28:04.930Z,4.88
2023-01-10T09:30:32.067Z,6.03
2023-01-10T09:32:59.553Z,4.63
2023-01-10T09:35:28.179Z,5.20
2023-01-10T09:38:01.188Z,5.22
2023-01-10T09:40:53.147Z,6.93
2023-01-10T09:43:32.095Z,6.15
2023-01-10T09:46:05.849Z,5.10
2023-01-10T09:49:11.519Z,4.65
2023-01-10T09:51:42.085Z,5.60
2023-01-10T09:54:37.529Z,5.32
2023-01-10T09:57:04.605Z,6.17
2023-01-10T09:59:42.893Z,5.47
2023-01-10T10:02:41.616Z,5.75
2023-01-10T10:05:23.264Z,5.80
2023-01-10T10:08:05.094Z,5.30
2023-01-10T10:10:40.173Z,6.32
2023-01-10T10:13:28.157Z,6.03
2023-01-10T10:16:27.225Z,4.95
2023-01-10T10:19:13.391Z,5.72
2023-01-10T10:21:54.580Z,6.40
2023-01-10T10:24:36.117Z,5.30
2023-01-10T10:27:24.403Z,5.47
2023-01-10T10:30:04.604Z,5.47
2023-01-10T10:32:57.206Z,5.07
2023-01-10T10:35:39.455Z,5.75
2023-01-10T10:38:22.784Z,5.05
2023-01-10T10:40:51.960Z,5.25
2023-01-10T10:43:39.165Z,5.68
2023-01-10T10:46:19.034Z,5.30
2023-01-10T10:49:13.860Z,5.45
2023-01-10T10:51:53.828Z,5.93
2023-01-10T10:54:20.874Z,6.05
2023-01-10T10:56:47.829Z,5.00
2023-01-10T10:59:19.211Z,5.85
2023-01-10T11:01:49.955Z,5.28
2023-01-10T11:04:21.123Z,5.60
2023-01-10T11:06:51.386Z,5.55
2023-01-10T11:09:40.442Z,6.57
2023-01-10T11:12:14.145Z,5.18
2023-01-10T11:14:49.681Z,5.85
2023-01-10T11:17:25.723Z,5.72
2023-01-10T11:19:58.218Z,5.50
2023-01-10T11:22:27.375Z,5.70
2023-01-10T11:25:00.372Z,4.82
2023-01-10T11:27:33.053Z,5.45
2023-01-10T11:30:03.381Z,4.75
2023-01-10T11:32:33.165Z,5.30
2023-01-10T11:35:03.565Z,5.20
2023-01-10T11:37:32.755Z,4.97
2023-01-10T11:40:25.339Z,5.55
2023-01-10T11:42:59.309Z,6.03
2023-01-10T11:45:31.931Z,4.60
2023-01-10T11:48:05.687Z,4.85
2023-01-10T11:50:38.455Z,4.45
2023-01-10T11:53:07.745Z,4.20
2023-01-10T11:55:37.437Z,5.35
2023-01-10T11:58:13.244Z,4.57
2023-01-10T12:00:46.646Z,5.53
2023-01-10T12:03:28.534Z,4.30
2023-01-10T12:06:16.953Z,5.15
2023-01-10T12:08:47.643Z,4.70
2023-01-10T12:11:17.528Z,5.97
2023-01-10T12:13:50.104Z,4.85
2023-01-10T12:16:22.970Z,4.78
2023-01-10T12:18:52.388Z,5.53
2023-01-10T12:21:31.503Z,5.28
2023-01-10T12:24:05.073Z,4.53
2023-01-10T12:26:33.676Z,6.32
2023-01-10T12:29:08.845Z,6.03
2023-01-10T12:31:39.412Z,5.78
2023-01-10T12:34:22.759Z,4.63
2023-01-10T12:37:08.689Z,5.20
2023-01-10T12:39:46.886Z,4.03
2023-01-10T12:42:55.615Z,4.20
2023-01-10T12:45:34.460Z,3.65
2023-01-10T12:48:15.557Z,4.25
2023-01-10T12:50:48.614Z,4.05
2023-01-10T12:53:36.330Z,4.50
2023-01-10T12:56:07.992Z,4.63
2023-01-10T12:58:44.051Z,3.63
2023-01-10T13:01:17.702Z,4.13
2023-01-10T13:03:46.666Z,3.38
2023-01-10T13:06:24.402Z,3.50
2023-01-10T13:08:51.934Z,3.78
2023-01-10T13:11:22.689Z,4.00
2023-01-10T13:13:55.787Z,3.30
2023-01-10T13:16:42.887Z,3.78
2023-01-10T13:19:14.488Z,3.67
2023-01-10T13:21:42.955Z,4.28
2023-01-10T13:24:16.064Z,5.97
2023-01-10T13:26:54.995Z,4.75
2023-01-10T13:29:24.901Z,4.65
2023-01-10T13:31:57.376Z,3.90
2023-01-10T13:34:33.941Z,3.53
2023-01-10T13:37:25.302Z,3.67
2023-01-10T13:39:59.501Z,4.25
2023-01-10T13:42:51.082Z,3.20
2023-01-10T13:45:26.463Z,3.30
2023-01-10T13:50:24.008Z,3.90
2023-01-10T13:52:52.442Z,3.60
2023-01-10T13:55:39.004Z,3.60
2023-01-10T13:58:12.077Z,3.70
2023-01-10T14:00:57.503Z,3.78
2023-01-10T14:03:41.534Z,3.40
2023-01-10T14:06:28.675Z,3.58
2023-01-10T14:08:58.344Z,3.38
2023-01-10T14:11:53.455Z,4.65
2023-01-10T14:14:34.279Z,3.90
2023-01-10T14:17:35.211Z,4.10
2023-01-10T14:20:06.676Z,4.00
2023-01-10T14:22:36.721Z,4.75
2023-01-10T14:25:08.146Z,4.63
2023-01-10T14:27:44.834Z,3.70
2023-01-10T14:30:22.046Z,4.32
2023-01-10T14:32:51.697Z,5.15
2023-01-10T14:35:22.205Z,5.00
2023-01-10T14:37:58.581Z,5.43
2023-01-10T14:40:28.460Z,5.20
2023-01-10T14:42:58.534Z,5.70
2023-01-10T14:45:43.382Z,6.13
2023-01-10T14:48:27.462Z,5.80
2023-01-10T14:51:07.338Z,6.55
2023-01-10T14:53:34.245Z,5.88
2023-01-10T14:56:01.115Z,6.95
2023-01-10T14:58:28.047Z,8.02
2023-01-10T15:00:56.262Z,8.63
2023-01-10T15:03:25.129Z,9.52
2023-01-10T15:05:55.179Z,9.55
2023-01-10T15:08:28.300Z,9.45
2023-01-10T15:11:00.631Z,10.50
2023-01-10T15:13:31.393Z,9.45
2023-01-10T15:15:59.458Z,9.95
2023-01-10T15:18:45.342Z,10.82
2023-01-10T15:21:14.530Z,10.98
2023-01-10T15:23:43.659Z,10.18
2023-01-10T15:26:25.757Z,12.02
2023-01-10T15:29:19.308Z,10.95
2023-01-10T15:31:46.505Z,11.25
2023-01-10T15:34:22.625Z,11.45
2023-01-10T15:36:59.817Z,10.65
2023-01-10T15:39:40.789Z,11.63
2023-01-10T15:42:11.402Z,12.50
2023-01-10T15:44:39.938Z,12.13
2023-01-10T15:47:29.689Z,12.52
2023-01-10T15:49:58.197Z,12.60
2023-01-10T15:52:25.127Z,13.27
2023-01-10T15:54:52.108Z,12.15
2023-01-10T15:57:29.785Z,11.75
2023-01-10T15:59:58.955Z,12.65
2023-01-10T16:02:32.740Z,13.02
2023-01-10T16:05:14.854Z,14.23
2023-01-10T16:07:46.705Z,14.05
2023-01-10T16:10:27.578Z,14.90
2023-01-10T16:13:27.423Z,14.70
2023-01-10T16:16:05.223Z,15.70
2023-01-10T16:18:32.235Z,16.17
2023-01-10T16:21:02.347Z,16.33
2023-01-10T16:23:34.501Z,14.95
2023-01-10T16:26:05.567Z,15.27
2023-01-10T16:28:36.420Z,14.95
2023-01-10T16:31:06.565Z,12.90
2023-01-10T16:33:34.226Z,13.23
2023-01-10T16:36:01.238Z,12.98
2023-01-10T16:38:29.410Z,13.45
2023-01-10T16:40:59.358Z,12.40
2023-01-10T16:43:29.411Z,12.50
2023-01-10T16:46:01.228Z,10.52
2023-01-10T16:48:30.253Z,10.45
2023-01-10T16:51:06.133Z,10.27
2023-01-10T16:53:33.197Z,9.70
2023-01-10T16:56:00.041Z,8.57
2023-01-10T16:58:27.061Z,7.88
2023-01-10T17:00:54.067Z,7.57
2023-01-10T17:03:23.390Z,7.13
2023-01-10T17:05:50.810Z,8.15
2023-01-10T17:08:22.682Z,7.30
2023-01-10T17:10:53.644Z,7.38
2023-01-10T17:13:25.912Z,8.10
2023-01-10T17:15:52.781Z,7.88
2023-01-10T17:18:19.712Z,7.03
2023-01-10T17:20:46.771Z,7.32
2023-01-10T17:23:15.668Z,7.45
2023-01-10T17:25:43.019Z,7.20
2023-01-10T17:28:11.789Z,6.45
2023-01-10T17:30:43.151Z,6.68
2023-01-10T17:33:13.329Z,6.15
2023-01-10T17:35:41.360Z,7.35
2023-01-10T17:38:10.761Z,6.70
2023-01-10T17:40:46.432Z,6.07
2023-01-10T17:43:14.769Z,5.88
2023-01-10T17:45:44.007Z,6.05
2023-01-10T17:48:13.122Z,6.25
2023-01-10T17:50:39.994Z,6.75
2023-01-10T17:53:06.995Z,5.88
2023-01-10T17:55:33.838Z,5.60
2023-01-10T17:58:02.764Z,5.55
2023-01-10T18:00:29.864Z,6.13
2023-01-10T18:02:56.847Z,5.32
2023-01-10T18:05:23.753Z,5.35
2023-01-10T18:07:50.613Z,5.13
2023-01-10T18:10:17.558Z,5.38
2023-01-10T18:12:44.546Z,5.88
2023-01-10T18:15:11.703Z,5.78
2023-01-10T18:17:38.847Z,4.93
2023-01-10T18:20:06.640Z,5.88
2023-01-10T18:22:52.344Z,5.75
2023-01-10T18:25:19.419Z,5.30
2023-01-10T18:27:50.258Z,5.57
2023-01-10T18:30:22.318Z,5.35
2023-01-10T18:32:50.375Z,5.68
2023-01-10T18:35:17.364Z,5.95
2023-01-10T18:37:45.713Z,6.22
2023-01-10T18:40:13.364Z,6.22
2023-01-10T18:42:40.279Z,6.80
2023-01-10T18:45:07.853Z,5.70
2023-01-10T18:47:34.754Z,6.55
2023-01-10T18:50:01.635Z,7.20
2023-01-10T18:52:28.635Z,6.75
2023-01-10T18:54:55.508Z,7.22
2023-01-10T18:57:22.431Z,7.60
2023-01-10T18:59:49.500Z,7.63
2023-01-10T19:02:16.795Z,7.20
2023-01-10T19:04:43.723Z,7.13
2023-01-10T19:07:10.650Z,6.40
2023-01-10T19:09:37.549Z,6.30
2023-01-10T19:12:04.664Z,6.05
2023-01-10T19:14:31.497Z,6.53
2023-01-10T19:16:58.392Z,6.57
2023-01-10T19:19:25.388Z,7.18
2023-01-10T19:21:52.326Z,6.07
2023-01-10T19:24:27.282Z,7.40
2023-01-10T19:26:54.926Z,7.35
2023-01-10T19:29:22.381Z,7.85
2023-01-10T19:31:50.129Z,7.30
2023-01-10T19:34:17.616Z,7.68
2023-01-10T19:36:45.564Z,7.97
2023-01-10T19:39:13.470Z,7.78
2023-01-10T19:41:41.372Z,8.10
2023-01-10T19:44:12.445Z,8.15
2023-01-10T19:46:40.688Z,8.73
2023-01-10T19:49:08.713Z,8.63
2023-01-10T19:51:39.464Z,8.48
2023-01-10T19:54:08.549Z,8.95
2023-01-10T19:56:35.685Z,8.18
2023-01-10T19:59:02.903Z,9.10
2023-01-10T20:01:31.356Z,8.35
2023-01-10T20:04:01.605Z,8.98
2023-01-10T20:06:30.911Z,8.60
2023-01-10T20:08:58.350Z,8.25
2023-01-10T20:11:27.050Z,9.15
2023-01-10T20:13:54.771Z,8.32
2023-01-10T20:16:23.663Z,7.50
2023-01-10T20:18:51.953Z,8.05
2023-01-10T20:21:19.834Z,7.03
2023-01-10T20:23:47.678Z,7.28
2023-01-10T20:26:27.834Z,7.32
2023-01-10T20:28:56.372Z,6.90
2023-01-10T20:31:24.337Z,7.20
2023-01-10T20:33:51.311Z,6.55
2023-01-10T20:36:22.506Z,7.07
2023-01-10T20:38:50.544Z,6.70
2023-01-10T20:41:23.639Z,6.03
2023-01-10T20:43:51.488Z,6.05
2023-01-10T20:46:24.456Z,6.35
2023-01-10T20:48:52.511Z,5.85
2023-01-10T20:51:25.458Z,5.53
2023-01-10T20:53:52.385Z,5.57
2023-01-10T20:56:21.676Z,4.45
2023-01-10T20:58:50.106Z,5.03
2023-01-10T21:01:28.629Z,5.05
2023-01-10T21:04:01.154Z,4.70
2023-01-10T21:06:28.193Z,4.90
2023-01-10T21:08:55.322Z,4.28
2023-01-10T21:11:22.274Z,4.20
2023-01-10T21:13:49.387Z,4.72
2023-01-10T21:16:19.907Z,4.35
2023-01-10T21:18:47.603Z,4.82
2023-01-10T21:21:17.790Z,4.55
2023-01-10T21:23:45.089Z,4.38
2023-01-10T21:26:13.820Z,4.13
2023-01-10T21:28:46.523Z,4.20
2023-01-10T21:31:16.476Z,4.35
2023-01-10T21:33:43.838Z,3.90
2023-01-10T21:36:12.718Z,3.83
2023-01-10T21:38:40.883Z,3.40
2023-01-10T21:41:35.651Z,3.63
2023-01-10T21:44:04.139Z,4.13
2023-01-10T21:46:31.040Z,3.30
2023-01-10T21:48:58.120Z,3.50
2023-01-10T21:51:25.087Z,3.65
2023-01-10T21:53:52.019Z,4.13
2023-01-10T21:56:18.848Z,3.10
2023-01-10T21:58:46.936Z,3.47
2023-01-10T22:01:15.117Z,3.20
2023-01-10T22:03:44.097Z,3.70
2023-01-10T22:06:10.986Z,3.05
2023-01-10T22:08:37.919Z,3.38
2023-01-10T22:11:04.848Z,3.28
2023-01-10T22:13:31.750Z,3.10
2023-01-10T22:16:01.844Z,2.88
2023-01-10T22:18:30.635Z,3.83
2023-01-10T22:20:58.796Z,3.30
2023-01-10T22:23:28.545Z,3.63
2023-01-10T22:26:10.695Z,2.92
2023-01-10T22:28:37.680Z,2.58
2023-01-10T22:31:05.302Z,3.30
2023-01-10T22:33:35.144Z,2.78
2023-01-10T22:36:07.004Z,2.80
2023-01-10T22:38:34.349Z,2.92
2023-01-10T22:41:09.108Z,2.75
2023-01-10T22:43:36.303Z,2.45
2023-01-10T22:46:03.557Z,3.05
2023-01-10T22:48:30.639Z,3.38
2023-01-10T22:50:59.427Z,2.63
2023-01-10T22:53:27.355Z,3.00
2023-01-10T22:56:01.409Z,2.65
2023-01-10T22:58:29.076Z,3.15
2023-01-10T23:00:56.327Z,2.83
2023-01-10T23:03:23.799Z,3.42
2023-01-10T23:05:57.348Z,3.03
2023-01-10T23:08:25.844Z,2.88
2023-01-10T23:10:54.210Z,3.13
2023-01-10T23:13:25.473Z,3.10
2023-01-10T23:16:00.363Z,3.28
2023-01-10T23:18:27.741Z,2.78
2023-01-10T23:20:55.134Z,2.58
2023-01-10T23:23:23.008Z,3.08
2023-01-10T23:26:01.462Z,2.60
2023-01-10T23:28:29.787Z,2.60
2023-01-10T23:30:56.640Z,2.83
2023-01-10T23:33:23.790Z,2.50
2023-01-10T23:35:50.607Z,2.38
2023-01-10T23:38:17.643Z,2.53
2023-01-10T23:40:44.917Z,2.55
2023-01-10T23:43:11.893Z,2.10
2023-01-10T23:45:38.738Z,2.53
2023-01-10T23:48:06.245Z,2.50
2023-01-10T23:50:33.081Z,2.25
2023-01-10T23:52:59.976Z,2.22
2023-01-10T23:55:26.914Z,2.30
2023-01-10T23:57:53.824Z,2.47
